Time;durP1;ratioP1;P1;durP2;ratioP2;P2;SDS_P1;SDS_P2;PMS_P1;PMS_P2;Temp;Humidity;BMP_temperature;BMP_pressure;BME280_temperature;BME280_humidity;BME280_pressure;Samples;Min_cycle;Max_cycle;Signal;HPM_P1;HPM_P2
2023/03/13 00:01:55;;;;;;;;;;;8.60;99.90;;;;;;4859662;29;19928;-68
2023/03/13 00:04:21;;;;;;;;;;;8.60;99.90;;;;;;4858456;29;19954;-67
2023/03/13 00:06:47;;;;;;;;;;;8.60;99.90;;;;;;4858809;29;19928;-69
2023/03/13 00:09:13;;;;;;;;;;;8.50;99.90;;;;;;4859179;29;19928;-70
2023/03/13 00:11:39;;;;;;;;;;;8.50;99.90;;;;;;4859748;29;19992;-68
2023/03/13 00:14:05;;;;;;;;;;;8.50;99.90;;;;;;4858365;29;20329;-68
2023/03/13 00:16:33;;;;;;;;;;;8.50;99.90;;;;;;4873754;29;20277;-68
2023/03/13 00:18:59;;;;;;;;;;;8.50;99.90;;;;;;4859706;29;19971;-67
2023/03/13 00:21:26;;;;;;;;;;;8.50;99.90;;;;;;4858335;29;20019;-68
2023/03/13 00:23:51;;;;;;;;;;;8.50;99.90;;;;;;4859614;29;19928;-67
2023/03/13 00:26:18;;;;;;;;;;;8.50;99.90;;;;;;4859203;29;20023;-68
2023/03/13 00:28:44;;;;;;;;;;;8.50;99.90;;;;;;4859470;29;19928;-68
2023/03/13 00:31:30;;;;;;;;;;;8.50;99.90;;;;;;4859173;29;19939;-68
2023/03/13 00:34:00;;;;;;;;;;;8.60;99.90;;;;;;4842793;29;19929;-69
2023/03/13 00:36:27;;;;;;;;;;;8.60;99.90;;;;;;4862260;29;19989;-69
2023/03/13 00:38:53;;;;;;;;;;;8.50;99.90;;;;;;4862337;29;19957;-69
2023/03/13 00:41:29;;;;;;;;;;;8.50;99.90;;;;;;4861513;29;20301;-68
2023/03/13 00:43:55;;;;;;;;;;;8.50;99.90;;;;;;4877086;29;20460;-67
2023/03/13 00:46:22;;;;;;;;;;;8.50;99.90;;;;;;4861592;29;19993;-68
2023/03/13 00:48:48;;;;;;;;;;;8.50;99.90;;;;;;4861611;29;19928;-68
2023/03/13 00:51:15;;;;;;;;;;;8.50;99.90;;;;;;4861933;29;20277;-67
2023/03/13 00:53:41;;;;;;;;;;;8.50;99.90;;;;;;4866292;29;20283;-67
2023/03/13 00:56:08;;;;;;;;;;;8.50;99.90;;;;;;4881072;29;20026;-75
2023/03/13 00:58:35;;;;;;;;;;;8.50;99.90;;;;;;4864834;29;20288;-76
2023/03/13 01:01:06;;;;;;;;;;;8.50;99.90;;;;;;4880837;29;20308;-68
2023/03/13 01:03:32;;;;;;;;;;;8.50;99.90;;;;;;4864092;29;20384;-70
2023/03/13 01:05:59;;;;;;;;;;;8.50;99.90;;;;;;4864575;29;19928;-68
2023/03/13 01:08:25;;;;;;;;;;;8.50;99.90;;;;;;4880513;29;19990;-68
2023/03/13 01:10:56;;;;;;;;;;;8.40;99.90;;;;;;4881042;29;19986;-69
2023/03/13 01:13:22;;;;;;;;;;;8.20;99.90;;;;;;4864243;29;19935;-67
2023/03/13 01:15:47;;;;;;;;;;;8.50;99.90;;;;;;4864582;29;19928;-68
2023/03/13 01:18:14;;;;;;;;;;;8.50;99.90;;;;;;4880595;29;19956;-68
2023/03/13 01:20:40;;;;;;;;;;;8.50;99.90;;;;;;4880962;29;19928;-68
2023/03/13 01:23:05;;;;;;;;;;;8.50;99.90;;;;;;4880790;29;19986;-68
2023/03/13 01:25:34;;;;;;;;;;;8.50;99.90;;;;;;4864138;29;19928;-69
2023/03/13 01:28:00;;;;;;;;;;;8.50;99.90;;;;;;4880665;29;19938;-68
2023/03/13 01:30:25;;;;;;;;;;;8.50;99.90;;;;;;4848076;29;19932;-68
2023/03/13 01:32:51;;;;;;;;;;;8.50;99.90;;;;;;4864164;29;19934;-68
2023/03/13 01:35:18;;;;;;;;;;;8.60;99.90;;;;;;4863854;29;19927;-67
2023/03/13 01:37:43;;;;;;;;;;;8.50;99.90;;;;;;4880799;29;19935;-67
2023/03/13 01:40:09;;;;;;;;;;;8.50;99.90;;;;;;4863848;29;20273;-67
2023/03/13 01:42:55;;;;;;;;;;;8.50;99.90;;;;;;4880288;29;19936;-68
2023/03/13 01:45:39;;;;;;;;;;;8.60;99.90;;;;;;4863589;29;20023;-68
2023/03/13 01:48:04;;;;;;;;;;;8.50;99.90;;;;;;4879483;29;19999;-67
2023/03/13 01:50:30;;;;;;;;;;;8.50;99.90;;;;;;4879829;29;19932;-67
2023/03/13 01:52:56;;;;;;;;;;;8.50;99.90;;;;;;4880443;29;19995;-69
2023/03/13 01:55:21;;;;;;;;;;;8.50;99.90;;;;;;4863038;29;19968;-68
2023/03/13 01:57:49;;;;;;;;;;;8.50;99.90;;;;;;4848572;29;20023;-67
2023/03/13 02:00:21;;;;;;;;;;;8.50;99.90;;;;;;4879498;29;19977;-77
2023/03/13 02:02:49;;;;;;;;;;;8.50;99.90;;;;;;4863411;29;19927;-69
2023/03/13 02:05:16;;;;;;;;;;;8.60;99.90;;;;;;4879933;29;19928;-78
2023/03/13 02:07:47;;;;;;;;;;;8.60;99.90;;;;;;4863509;29;19944;-68
2023/03/13 02:10:14;;;;;;;;;;;8.60;99.90;;;;;;4879846;29;19927;-69
2023/03/13 02:12:40;;;;;;;;;;;8.60;99.90;;;;;;4879509;29;19932;-67
2023/03/13 02:15:11;;;;;;;;;;;8.60;99.90;;;;;;4879936;29;19927;-68
2023/03/13 02:17:37;;;;;;;;;;;8.60;99.90;;;;;;4847693;29;19934;-68
2023/03/13 02:20:03;;;;;;;;;;;8.60;99.90;;;;;;4848187;29;19928;-70
2023/03/13 02:22:38;;;;;;;;;;;8.50;99.90;;;;;;4879333;29;19932;-67
2023/03/13 02:25:06;;;;;;;;;;;8.50;99.90;;;;;;4863013;29;19979;-67
2023/03/13 02:27:32;;;;;;;;;;;8.60;99.90;;;;;;4879384;29;19935;-68
2023/03/13 02:29:58;;;;;;;;;;;8.50;99.90;;;;;;4879383;29;19927;-68
2023/03/13 02:32:24;;;;;;;;;;;8.60;99.90;;;;;;4879220;29;19932;-69
2023/03/13 02:34:51;;;;;;;;;;;8.60;99.90;;;;;;4847696;29;19987;-68
2023/03/13 02:37:18;;;;;;;;;;;8.60;99.90;;;;;;4878939;29;19928;-71
2023/03/13 02:39:46;;;;;;;;;;;8.60;99.90;;;;;;4878716;29;19928;-68
2023/03/13 02:42:16;;;;;;;;;;;8.50;99.90;;;;;;4878843;29;19998;-62
2023/03/13 02:44:43;;;;;;;;;;;8.50;99.90;;;;;;4878669;29;19932;-62
2023/03/13 02:47:08;;;;;;;;;;;8.50;99.90;;;;;;4862524;29;20300;-64
2023/03/13 02:49:34;;;;;;;;;;;8.60;99.90;;;;;;4878078;29;19935;-63
2023/03/13 02:52:09;;;;;;;;;;;8.50;99.90;;;;;;4878910;29;19939;-62
2023/03/13 02:54:36;;;;;;;;;;;8.60;99.90;;;;;;4861319;29;20260;-63
2023/03/13 02:57:03;;;;;;;;;;;8.60;99.90;;;;;;4877809;29;19928;-63
2023/03/13 02:59:29;;;;;;;;;;;8.70;99.90;;;;;;4877843;29;19943;-63
2023/03/13 03:01:55;;;;;;;;;;;8.70;99.90;;;;;;4862267;29;20026;-63
2023/03/13 03:04:21;;;;;;;;;;;8.60;99.90;;;;;;4878734;29;19931;-63
2023/03/13 03:06:47;;;;;;;;;;;8.70;99.90;;;;;;4877641;29;19928;-62
2023/03/13 03:09:13;;;;;;;;;;;8.70;99.90;;;;;;4861996;29;19928;-63
2023/03/13 03:11:38;;;;;;;;;;;8.70;99.90;;;;;;4878222;29;19991;-63
2023/03/13 03:14:04;;;;;;;;;;;8.70;99.90;;;;;;4878782;29;19975;-63
2023/03/13 03:16:29;;;;;;;;;;;8.70;99.90;;;;;;4861435;29;19954;-63
2023/03/13 03:18:55;;;;;;;;;;;8.70;99.90;;;;;;4862343;29;20269;-63
2023/03/13 03:21:22;;;;;;;;;;;8.80;99.90;;;;;;4862347;29;19932;-63
2023/03/13 03:23:48;;;;;;;;;;;8.80;99.90;;;;;;4861221;29;20560;-63
2023/03/13 03:26:14;;;;;;;;;;;8.80;99.90;;;;;;4878096;29;19987;-63
2023/03/13 03:28:40;;;;;;;;;;;8.80;99.90;;;;;;4861395;29;19938;-64
2023/03/13 03:31:06;;;;;;;;;;;8.80;99.90;;;;;;4878530;29;19932;-63
2023/03/13 03:33:31;;;;;;;;;;;8.80;99.90;;;;;;4861511;29;20026;-63
2023/03/13 03:36:07;;;;;;;;;;;8.80;99.90;;;;;;4861749;29;20352;-63
2023/03/13 03:38:33;;;;;;;;;;;8.80;99.90;;;;;;4877932;29;20288;-63
2023/03/13 03:40:59;;;;;;;;;;;8.80;99.90;;;;;;4846498;29;19927;-63
2023/03/13 03:43:25;;;;;;;;;;;8.80;99.90;;;;;;4861691;29;19934;-63
2023/03/13 03:45:50;;;;;;;;;;;8.90;99.90;;;;;;4846376;29;19943;-63
2023/03/13 03:48:16;;;;;;;;;;;8.80;99.90;;;;;;4861579;29;20390;-62
2023/03/13 03:50:42;;;;;;;;;;;8.80;99.90;;;;;;4861112;29;19928;-62
2023/03/13 03:53:08;;;;;;;;;;;8.90;99.90;;;;;;4878597;29;19946;-62
2023/03/13 03:55:34;;;;;;;;;;;8.90;99.90;;;;;;4878077;29;19928;-63
2023/03/13 03:57:59;;;;;;;;;;;8.90;99.90;;;;;;4878170;29;20043;-62
2023/03/13 04:00:26;;;;;;;;;;;8.90;99.90;;;;;;4861676;29;19928;-62
2023/03/13 04:02:52;;;;;;;;;;;9.00;99.90;;;;;;4877913;29;20017;-62
2023/03/13 04:05:18;;;;;;;;;;;8.90;99.90;;;;;;4877686;29;20422;-62
2023/03/13 04:07:43;;;;;;;;;;;9.10;99.90;;;;;;4877868;29;19927;-63
2023/03/13 04:10:09;;;;;;;;;;;9.00;99.90;;;;;;4879270;29;19931;-63
2023/03/13 04:12:35;;;;;;;;;;;9.10;99.90;;;;;;4881654;29;19931;-63
2023/03/13 04:15:00;;;;;;;;;;;9.10;99.90;;;;;;4865003;29;19987;-62
2023/03/13 04:17:26;;;;;;;;;;;9.20;99.90;;;;;;4880742;29;19979;-62
2023/03/13 04:19:52;;;;;;;;;;;9.20;99.90;;;;;;4865048;29;19928;-62
2023/03/13 04:22:17;;;;;;;;;;;9.30;99.90;;;;;;4881835;29;19981;-63
2023/03/13 04:24:43;;;;;;;;;;;9.30;99.90;;;;;;4881200;29;20348;-62
2023/03/13 04:27:08;;;;;;;;;;;9.40;99.90;;;;;;4881739;29;19934;-63
2023/03/13 04:29:34;;;;;;;;;;;9.30;99.90;;;;;;4864899;29;19935;-63
2023/03/13 04:32:00;;;;;;;;;;;9.30;99.90;;;;;;4881683;29;19931;-63
2023/03/13 04:34:25;;;;;;;;;;;9.30;99.90;;;;;;4849667;29;19932;-63
2023/03/13 04:36:51;;;;;;;;;;;9.40;99.90;;;;;;4881316;29;19927;-63
2023/03/13 04:39:16;;;;;;;;;;;9.50;99.90;;;;;;4880443;29;19928;-63
2023/03/13 04:41:42;;;;;;;;;;;9.50;99.90;;;;;;4881086;29;19975;-63
2023/03/13 04:44:08;;;;;;;;;;;9.60;99.90;;;;;;4881260;29;20308;-63
2023/03/13 04:46:33;;;;;;;;;;;9.70;99.90;;;;;;4880928;29;19928;-63
2023/03/13 04:48:59;;;;;;;;;;;9.70;99.90;;;;;;4880779;29;19924;-63
2023/03/13 04:51:25;;;;;;;;;;;9.70;99.90;;;;;;4881345;29;19927;-63
2023/03/13 04:53:50;;;;;;;;;;;9.80;99.90;;;;;;4880730;29;20324;-63
2023/03/13 04:56:23;;;;;;;;;;;9.80;99.90;;;;;;4880825;29;19983;-63
2023/03/13 04:58:49;;;;;;;;;;;9.80;99.90;;;;;;4863967;29;20344;-63
2023/03/13 05:01:14;;;;;;;;;;;9.90;99.90;;;;;;4881091;29;19932;-63
2023/03/13 05:03:40;;;;;;;;;;;9.90;99.90;;;;;;4880615;29;20447;-64
2023/03/13 05:06:06;;;;;;;;;;;9.90;99.90;;;;;;4864076;29;19927;-63
2023/03/13 05:08:31;;;;;;;;;;;10.00;99.90;;;;;;4880919;29;20022;-63
2023/03/13 05:10:57;;;;;;;;;;;10.10;99.90;;;;;;4880567;29;19928;-63
2023/03/13 05:13:22;;;;;;;;;;;10.10;99.90;;;;;;4848998;29;19931;-63
2023/03/13 05:15:48;;;;;;;;;;;10.10;99.90;;;;;;4880558;29;19928;-64
2023/03/13 05:18:13;;;;;;;;;;;10.20;99.90;;;;;;4863985;29;20512;-63
2023/03/13 05:20:39;;;;;;;;;;;10.20;99.90;;;;;;4863885;29;19999;-63
2023/03/13 05:23:05;;;;;;;;;;;10.20;99.90;;;;;;4880312;29;19935;-63
2023/03/13 05:25:31;;;;;;;;;;;10.30;99.90;;;;;;4880695;29;19927;-64
2023/03/13 05:27:56;;;;;;;;;;;10.30;99.90;;;;;;4863506;29;19928;-63
2023/03/13 05:30:22;;;;;;;;;;;10.40;99.90;;;;;;4880440;29;19950;-63
2023/03/13 05:32:47;;;;;;;;;;;10.50;99.90;;;;;;4879517;29;20372;-64
2023/03/13 05:35:13;;;;;;;;;;;10.50;99.90;;;;;;4880482;29;19935;-63
2023/03/13 05:37:39;;;;;;;;;;;10.50;99.90;;;;;;4880446;29;20329;-63
2023/03/13 05:40:04;;;;;;;;;;;10.60;99.90;;;;;;4879868;29;20010;-63
2023/03/13 05:42:30;;;;;;;;;;;10.60;99.90;;;;;;4880462;29;19935;-63
2023/03/13 05:44:56;;;;;;;;;;;10.60;99.90;;;;;;4863402;29;19927;-63
2023/03/13 05:47:21;;;;;;;;;;;10.70;99.90;;;;;;4880270;29;19928;-63
2023/03/13 05:49:47;;;;;;;;;;;10.70;99.90;;;;;;4879956;29;20408;-64
2023/03/13 05:52:12;;;;;;;;;;;10.70;99.90;;;;;;4880183;29;19935;-63
2023/03/13 05:54:38;;;;;;;;;;;10.70;99.90;;;;;;4879890;29;20372;-63
2023/03/13 05:57:03;;;;;;;;;;;10.80;99.90;;;;;;4879612;29;19964;-63
2023/03/13 05:59:29;;;;;;;;;;;10.80;99.90;;;;;;4880024;29;19954;-62
2023/03/13 06:01:54;;;;;;;;;;;10.70;99.90;;;;;;4879028;29;19996;-63
2023/03/13 06:04:20;;;;;;;;;;;10.70;99.90;;;;;;4879491;29;20340;-64
2023/03/13 06:06:46;;;;;;;;;;;10.80;99.90;;;;;;4879873;29;19928;-63
2023/03/13 06:09:11;;;;;;;;;;;10.80;99.90;;;;;;4879378;29;19927;-63
2023/03/13 06:11:37;;;;;;;;;;;10.70;99.90;;;;;;4879252;29;19934;-63
2023/03/13 06:14:02;;;;;;;;;;;10.80;99.90;;;;;;4879102;29;19931;-63
2023/03/13 06:16:28;;;;;;;;;;;10.70;99.90;;;;;;4879200;29;19928;-62
2023/03/13 06:18:54;;;;;;;;;;;10.80;99.90;;;;;;4879011;29;19927;-63
2023/03/13 06:21:19;;;;;;;;;;;10.80;99.90;;;;;;4862834;29;20387;-63
2023/03/13 06:23:45;;;;;;;;;;;10.90;99.90;;;;;;4878937;29;19928;-63
2023/03/13 06:26:10;;;;;;;;;;;10.80;99.90;;;;;;4878820;29;19996;-64
2023/03/13 06:28:36;;;;;;;;;;;10.80;99.90;;;;;;4879172;29;19928;-64
2023/03/13 06:31:02;;;;;;;;;;;10.80;99.90;;;;;;4846998;29;19970;-64
2023/03/13 06:33:29;;;;;;;;;;;10.70;99.90;;;;;;4862057;29;19939;-64
2023/03/13 06:35:55;;;;;;;;;;;10.80;99.90;;;;;;4878623;29;19927;-64
2023/03/13 06:38:21;;;;;;;;;;;10.80;99.90;;;;;;4879078;29;20019;-64
2023/03/13 06:40:46;;;;;;;;;;;10.80;99.90;;;;;;4878919;29;20436;-64
2023/03/13 06:43:12;;;;;;;;;;;10.80;99.90;;;;;;4878642;29;19935;-65
2023/03/13 06:45:37;;;;;;;;;;;10.90;99.90;;;;;;4877890;29;20026;-64
2023/03/13 06:48:03;;;;;;;;;;;10.90;99.90;;;;;;4878386;29;20367;-64
2023/03/13 06:50:29;;;;;;;;;;;10.90;99.90;;;;;;4878915;29;20276;-64
2023/03/13 06:52:56;;;;;;;;;;;10.90;99.90;;;;;;4862156;29;20025;-65
2023/03/13 06:55:22;;;;;;;;;;;10.90;99.90;;;;;;4878531;29;19975;-63
2023/03/13 06:57:51;;;;;;;;;;;11.00;99.90;;;;;;4879016;29;20022;-63
2023/03/13 07:00:16;;;;;;;;;;;11.00;99.90;;;;;;4862071;29;19923;-63
2023/03/13 07:02:42;;;;;;;;;;;11.00;99.90;;;;;;4878924;29;19935;-62
2023/03/13 07:05:08;;;;;;;;;;;10.90;99.90;;;;;;4878459;29;19928;-63
2023/03/13 07:07:34;;;;;;;;;;;11.00;99.90;;;;;;4878097;29;19980;-62
2023/03/13 07:09:59;;;;;;;;;;;11.00;99.90;;;;;;4878417;29;19928;-63
2023/03/13 07:12:25;;;;;;;;;;;11.10;99.90;;;;;;4878162;29;19928;-65
2023/03/13 07:14:51;;;;;;;;;;;11.10;99.90;;;;;;4847007;29;19995;-63
2023/03/13 07:17:16;;;;;;;;;;;11.20;99.90;;;;;;4877649;29;20018;-64
2023/03/13 07:19:42;;;;;;;;;;;11.10;99.90;;;;;;4878681;29;20431;-63
2023/03/13 07:22:07;;;;;;;;;;;11.20;99.90;;;;;;4877102;29;20018;-62
2023/03/13 07:24:33;;;;;;;;;;;11.20;99.90;;;;;;4877405;29;19928;-61
2023/03/13 07:26:59;;;;;;;;;;;11.30;99.90;;;;;;4862053;29;19934;-64
2023/03/13 07:29:24;;;;;;;;;;;11.30;99.90;;;;;;4877941;29;19928;-66
2023/03/13 07:31:50;;;;;;;;;;;11.20;99.90;;;;;;4878354;29;19940;-63
2023/03/13 07:34:15;;;;;;;;;;;11.30;99.90;;;;;;4861610;29;19927;-63
2023/03/13 07:36:41;;;;;;;;;;;11.30;99.90;;;;;;4861825;29;20014;-62
2023/03/13 07:39:07;;;;;;;;;;;11.40;99.90;;;;;;4861812;29;19953;-63
2023/03/13 07:41:32;;;;;;;;;;;11.40;99.90;;;;;;4876059;29;20405;-64
2023/03/13 07:43:58;;;;;;;;;;;11.30;99.90;;;;;;4876973;29;20273;-63
2023/03/13 07:46:24;;;;;;;;;;;11.40;99.90;;;;;;4877685;29;19936;-63
2023/03/13 07:48:50;;;;;;;;;;;11.40;99.90;;;;;;4877191;29;19931;-63
2023/03/13 07:51:16;;;;;;;;;;;11.30;99.90;;;;;;4861169;29;20372;-62
2023/03/13 07:53:43;;;;;;;;;;;11.30;99.90;;;;;;4877784;29;19928;-62
2023/03/13 07:56:10;;;;;;;;;;;11.30;99.90;;;;;;4861390;29;19928;-62
2023/03/13 07:58:37;;;;;;;;;;;11.30;99.90;;;;;;4878182;29;19928;-62
2023/03/13 08:01:08;;;;;;;;;;;11.20;99.90;;;;;;4861570;29;19936;-62
2023/03/13 08:03:34;;;;;;;;;;;11.20;99.90;;;;;;4861429;29;20300;-62
2023/03/13 08:06:01;;;;;;;;;;;11.20;99.90;;;;;;4877659;29;19960;-62
2023/03/13 08:08:27;;;;;;;;;;;11.30;99.90;;;;;;4861119;29;20533;-62
2023/03/13 08:10:52;;;;;;;;;;;11.30;99.90;;;;;;4878052;29;20018;-63
2023/03/13 08:13:18;;;;;;;;;;;11.30;99.90;;;;;;4877909;29;20400;-63
2023/03/13 08:15:43;;;;;;;;;;;11.30;99.90;;;;;;4878242;29;19978;-63
2023/03/13 08:18:09;;;;;;;;;;;11.30;99.90;;;;;;4861064;29;19934;-64
2023/03/13 08:20:34;;;;;;;;;;;11.30;99.90;;;;;;4877784;29;19951;-63
2023/03/13 08:23:00;;;;;;;;;;;11.30;99.90;;;;;;4878141;29;20026;-62
2023/03/13 08:25:26;;;;;;;;;;;11.30;99.90;;;;;;4877832;29;20499;-62
2023/03/13 08:27:51;;;;;;;;;;;11.50;99.90;;;;;;4877932;29;19928;-62
2023/03/13 08:30:17;;;;;;;;;;;11.60;99.90;;;;;;4860328;29;19934;-62
2023/03/13 08:32:43;;;;;;;;;;;11.90;99.90;;;;;;4861424;29;19927;-62
2023/03/13 08:35:08;;;;;;;;;;;12.30;99.90;;;;;;4878061;29;19932;-62
2023/03/13 08:37:34;;;;;;;;;;;12.70;99.90;;;;;;4877928;29;19939;-62
2023/03/13 08:40:00;;;;;;;;;;;12.80;99.90;;;;;;4861217;29;20462;-62
2023/03/13 08:42:25;;;;;;;;;;;13.00;99.90;;;;;;4860942;29;19934;-62
2023/03/13 08:44:51;;;;;;;;;;;13.50;99.90;;;;;;4877963;29;19951;-62
2023/03/13 08:47:19;;;;;;;;;;;14.50;99.90;;;;;;4877839;29;19934;-63
2023/03/13 08:49:45;;;;;;;;;;;15.20;99.90;;;;;;4861241;29;19960;-63
2023/03/13 08:52:10;;;;;;;;;;;16.00;99.90;;;;;;4877766;29;19928;-63
2023/03/13 08:54:36;;;;;;;;;;;16.60;99.90;;;;;;4877313;29;19928;-64
2023/03/13 08:57:01;;;;;;;;;;;17.00;99.90;;;;;;4880397;29;19935;-63
2023/03/13 08:59:27;;;;;;;;;;;17.10;99.90;;;;;;4864242;29;19975;-62
2023/03/13 09:01:53;;;;;;;;;;;16.90;99.90;;;;;;4881053;29;19934;-61
2023/03/13 09:04:19;;;;;;;;;;;16.60;99.90;;;;;;4880740;29;19978;-62
2023/03/13 09:06:44;;;;;;;;;;;16.40;99.90;;;;;;4881309;29;20340;-63
2023/03/13 09:09:11;;;;;;;;;;;16.60;99.90;;;;;;4880656;29;20034;-62
2023/03/13 09:11:38;;;;;;;;;;;16.50;99.90;;;;;;4880548;29;20349;-62
2023/03/13 09:14:04;;;;;;;;;;;16.60;99.90;;;;;;4864359;29;19935;-62
2023/03/13 09:16:30;;;;;;;;;;;16.50;99.90;;;;;;4880581;29;19932;-61
2023/03/13 09:18:57;;;;;;;;;;;15.80;99.90;;;;;;4864080;29;19988;-61
2023/03/13 09:21:24;;;;;;;;;;;15.20;99.90;;;;;;4880086;29;19934;-62
2023/03/13 09:23:50;;;;;;;;;;;14.80;99.90;;;;;;4880532;29;19979;-64
2023/03/13 09:26:16;;;;;;;;;;;14.50;99.90;;;;;;4880506;29;19928;-64
2023/03/13 09:28:42;;;;;;;;;;;14.30;99.90;;;;;;4863864;29;19928;-63
2023/03/13 09:31:08;;;;;;;;;;;14.20;99.90;;;;;;4880583;29;19934;-64
2023/03/13 09:33:34;;;;;;;;;;;14.00;99.90;;;;;;4863668;29;20396;-62
2023/03/13 09:35:59;;;;;;;;;;;13.90;99.90;;;;;;4880285;29;19982;-63
2023/03/13 09:38:25;;;;;;;;;;;13.80;99.90;;;;;;4880266;29;20031;-64
2023/03/13 09:40:52;;;;;;;;;;;13.70;99.90;;;;;;4863987;29;20443;-64
2023/03/13 09:43:36;;;;;;;;;;;13.50;99.90;;;;;;4864070;29;20041;-63
2023/03/13 09:46:07;;;;;;;;;;;13.40;99.90;;;;;;4880324;29;20030;-65
2023/03/13 09:48:56;;;;;;;;;;;13.30;99.90;;;;;;4880007;29;19928;-63
2023/03/13 09:51:27;;;;;;;;;;;13.30;99.90;;;;;;4843206;29;19935;-65
2023/03/13 09:53:57;;;;;;;;;;;13.30;99.90;;;;;;4879766;29;19928;-65
2023/03/13 09:56:24;;;;;;;;;;;13.40;99.90;;;;;;4879613;29;19928;-65
2023/03/13 09:58:54;;;;;;;;;;;13.40;99.90;;;;;;4863500;29;19928;-63
2023/03/13 10:01:22;;;;;;;;;;;13.40;99.90;;;;;;4880209;29;19939;-63
2023/03/13 10:03:59;;;;;;;;;;;13.40;99.90;;;;;;4863225;29;19936;-63
2023/03/13 10:06:26;;;;;;;;;;;13.40;99.90;;;;;;4879279;29;19928;-63
2023/03/13 10:08:52;;;;;;;;;;;13.50;99.90;;;;;;4878722;29;20027;-63
2023/03/13 10:11:24;;;;;;;;;;;13.60;99.90;;;;;;4879670;29;19988;-63
2023/03/13 10:14:02;;;;;;;;;;;13.70;99.90;;;;;;4879811;29;20038;-63
2023/03/13 10:16:39;;;;;;;;;;;13.90;99.90;;;;;;4879174;29;20412;-63
2023/03/13 10:19:11;;;;;;;;;;;14.00;99.90;;;;;;4863451;29;19931;-63
2023/03/13 10:21:37;;;;;;;;;;;14.10;99.90;;;;;;4879538;29;19979;-63
2023/03/13 10:24:03;;;;;;;;;;;14.20;99.90;;;;;;4862906;29;19928;-64
2023/03/13 10:26:31;;;;;;;;;;;14.30;99.90;;;;;;4862894;29;19928;-64
2023/03/13 10:28:59;;;;;;;;;;;14.50;99.90;;;;;;4879437;29;19951;-64
2023/03/13 10:31:30;;;;;;;;;;;14.50;99.90;;;;;;4879542;29;19996;-66
2023/03/13 10:34:05;;;;;;;;;;;14.60;99.90;;;;;;4847379;29;19975;-63
2023/03/13 10:36:38;;;;;;;;;;;14.60;99.90;;;;;;4879276;29;20427;-63
2023/03/13 10:39:07;;;;;;;;;;;14.70;99.90;;;;;;4879200;29;20410;-63
2023/03/13 10:41:34;;;;;;;;;;;14.60;99.90;;;;;;4879034;29;19954;-62
2023/03/13 10:44:03;;;;;;;;;;;14.60;99.90;;;;;;4862952;29;19931;-62
2023/03/13 10:46:30;;;;;;;;;;;14.50;99.90;;;;;;4879115;29;19949;-65
2023/03/13 10:48:58;;;;;;;;;;;14.50;99.90;;;;;;4879103;29;19928;-62
2023/03/13 10:51:30;;;;;;;;;;;14.60;99.90;;;;;;4847322;29;19928;-62
2023/03/13 10:53:55;;;;;;;;;;;14.60;99.90;;;;;;4879084;29;19987;-62
2023/03/13 10:56:30;;;;;;;;;;;14.60;99.90;;;;;;4878873;29;19933;-63
2023/03/13 10:58:56;;;;;;;;;;;14.60;99.90;;;;;;4879091;29;19983;-63
2023/03/13 11:01:21;;;;;;;;;;;14.60;99.90;;;;;;4862515;29;19931;-62
2023/03/13 11:03:48;;;;;;;;;;;14.50;99.90;;;;;;4878795;29;20014;-62
2023/03/13 11:06:30;;;;;;;;;;;14.60;99.90;;;;;;4878710;29;20380;-63
2023/03/13 11:09:00;;;;;;;;;;;14.60;99.90;;;;;;4878664;29;19984;-62
2023/03/13 11:11:29;;;;;;;;;;;14.60;99.90;;;;;;4878922;29;20292;-64
2023/03/13 11:14:06;;;;;;;;;;;14.60;99.90;;;;;;4861737;29;20391;-63
2023/03/13 11:16:34;;;;;;;;;;;14.60;99.90;;;;;;4878677;29;20018;-64
2023/03/13 11:19:12;;;;;;;;;;;14.60;99.90;;;;;;4878490;29;19939;-62
2023/03/13 11:21:40;;;;;;;;;;;14.70;99.90;;;;;;4878509;29;20014;-62
2023/03/13 11:24:10;;;;;;;;;;;14.70;99.90;;;;;;4878619;29;19927;-62
2023/03/13 11:26:58;;;;;;;;;;;14.70;99.90;;;;;;4861952;29;19927;-62
2023/03/13 11:29:37;;;;;;;;;;;14.60;99.90;;;;;;4878643;29;20285;-62
2023/03/13 11:32:08;;;;;;;;;;;14.70;99.90;;;;;;4878617;29;19982;-62
2023/03/13 11:34:34;;;;;;;;;;;14.70;99.90;;;;;;4878656;29;20360;-64
2023/03/13 11:37:11;;;;;;;;;;;14.70;99.90;;;;;;4878075;29;19979;-62
2023/03/13 11:39:45;;;;;;;;;;;14.70;99.90;;;;;;4861756;29;19932;-66
2023/03/13 11:42:20;;;;;;;;;;;14.70;99.90;;;;;;4878346;29;19928;-62
2023/03/13 11:44:58;;;;;;;;;;;14.60;99.90;;;;;;4878320;29;19970;-61
2023/03/13 11:47:30;;;;;;;;;;;14.60;99.90;;;;;;4878490;29;19953;-61
2023/03/13 11:50:02;;;;;;;;;;;14.60;99.90;;;;;;4878098;29;20074;-62
2023/03/13 11:52:27;;;;;;;;;;;14.60;99.90;;;;;;4862010;29;19928;-62
2023/03/13 11:54:53;;;;;;;;;;;14.50;99.90;;;;;;4877373;29;20010;-62
2023/03/13 11:57:36;;;;;;;;;;;14.60;99.90;;;;;;4878181;29;19935;-62
2023/03/13 12:00:05;;;;;;;;;;;14.60;99.90;;;;;;4878081;29;20344;-62
2023/03/13 12:02:34;;;;;;;;;;;14.70;99.90;;;;;;4878314;29;19932;-62
2023/03/13 12:05:06;;;;;;;;;;;14.70;99.90;;;;;;4861680;29;19927;-61
2023/03/13 12:07:35;;;;;;;;;;;14.70;99.90;;;;;;4861656;29;19982;-62
2023/03/13 12:10:09;;;;;;;;;;;14.80;99.90;;;;;;4877515;29;20483;-62
2023/03/13 12:12:46;;;;;;;;;;;14.80;99.90;;;;;;4877847;29;19928;-63
2023/03/13 12:15:24;;;;;;;;;;;14.80;99.90;;;;;;4877995;29;19928;-62
2023/03/13 12:17:57;;;;;;;;;;;14.90;99.90;;;;;;4861226;29;19932;-62
2023/03/13 12:20:25;;;;;;;;;;;14.80;99.90;;;;;;4861789;29;19979;-62
2023/03/13 12:23:06;;;;;;;;;;;14.80;99.90;;;;;;4877597;29;19928;-63
2023/03/13 12:25:35;;;;;;;;;;;14.70;99.90;;;;;;4846128;29;20379;-64
2023/03/13 12:28:14;;;;;;;;;;;14.70;99.90;;;;;;4845760;29;19974;-62
2023/03/13 12:30:41;;;;;;;;;;;14.70;99.90;;;;;;4878643;29;20454;-63
2023/03/13 12:33:36;;;;;;;;;;;14.70;99.90;;;;;;4864669;29;19935;-63
2023/03/13 12:36:13;;;;;;;;;;;14.80;99.90;;;;;;4855952;29;19928;-64
2023/03/13 12:38:54;;;;;;;;;;;14.90;99.90;;;;;;4865041;29;19927;-62
2023/03/13 12:41:25;;;;;;;;;;;14.90;99.90;;;;;;4881248;29;20467;-63
2023/03/13 12:43:53;;;;;;;;;;;15.00;99.90;;;;;;4881244;29;20023;-63
2023/03/13 12:46:31;;;;;;;;;;;15.00;99.90;;;;;;4881430;29;19992;-62
2023/03/13 12:49:05;;;;;;;;;;;15.00;99.90;;;;;;4879910;29;19975;-62
2023/03/13 12:51:50;;;;;;;;;;;15.00;99.90;;;;;;4864361;29;19982;-63
2023/03/13 12:54:34;;;;;;;;;;;15.00;99.90;;;;;;4880969;29;19931;-62
2023/03/13 12:57:21;;;;;;;;;;;15.00;99.90;;;;;;4880574;29;19931;-62
2023/03/13 12:59:51;;;;;;;;;;;15.00;99.90;;;;;;4881136;29;19927;-66
2023/03/13 13:02:19;;;;;;;;;;;15.00;99.90;;;;;;4849346;29;19928;-62
2023/03/13 13:04:46;;;;;;;;;;;15.00;99.90;;;;;;4881204;29;19927;-63
2023/03/13 13:07:32;;;;;;;;;;;15.00;99.90;;;;;;4880802;29;19928;-62
2023/03/13 13:09:59;;;;;;;;;;;15.00;99.90;;;;;;4880169;29;19935;-65
2023/03/13 13:12:25;;;;;;;;;;;15.00;99.90;;;;;;4877505;29;19927;-62
2023/03/13 13:14:51;;;;;;;;;;;14.90;99.90;;;;;;4878250;29;19975;-65
2023/03/13 13:17:35;;;;;;;;;;;14.90;99.90;;;;;;4878912;29;19934;-63
2023/03/13 13:20:19;;;;;;;;;;;14.90;99.90;;;;;;4878265;29;20015;-65
2023/03/13 13:22:45;;;;;;;;;;;14.90;99.90;;;;;;4879262;29;19927;-63
2023/03/13 13:25:11;;;;;;;;;;;14.80;99.90;;;;;;4878356;29;20195;-65
2023/03/13 13:27:36;;;;;;;;;;;14.80;99.90;;;;;;4878138;29;19928;-63
2023/03/13 13:30:17;;;;;;;;;;;14.80;99.90;;;;;;4879361;29;19958;-63
2023/03/13 13:32:44;;;;;;;;;;;14.80;99.90;;;;;;4862772;29;19927;-62
2023/03/13 13:35:42;;;;;;;;;;;14.80;99.90;;;;;;4879284;29;19931;-63
2023/03/13 13:38:17;;;;;;;;;;;14.80;99.90;;;;;;4842102;29;20289;-63
2023/03/13 13:41:00;;;;;;;;;;;14.70;99.90;;;;;;4879969;29;19927;-63
2023/03/13 13:43:29;;;;;;;;;;;14.70;99.90;;;;;;4862511;29;19956;-65
2023/03/13 13:45:57;;;;;;;;;;;14.70;99.90;;;;;;4879729;29;19934;-65
2023/03/13 13:48:26;;;;;;;;;;;14.70;99.90;;;;;;4879048;29;19928;-63
2023/03/13 13:51:10;;;;;;;;;;;14.70;99.90;;;;;;4877473;29;19992;-62
2023/03/13 13:53:40;;;;;;;;;;;14.70;99.90;;;;;;4878810;29;19983;-62
2023/03/13 13:56:25;;;;;;;;;;;14.60;99.90;;;;;;4862635;29;19928;-62
2023/03/13 13:58:54;;;;;;;;;;;14.60;99.90;;;;;;4863057;29;19932;-62
2023/03/13 14:01:20;;;;;;;;;;;14.60;99.90;;;;;;4879719;29;19936;-62
2023/03/13 14:03:46;;;;;;;;;;;14.60;99.90;;;;;;4863259;29;20404;-62
2023/03/13 14:06:23;;;;;;;;;;;14.60;99.90;;;;;;4862857;29;19928;-63
2023/03/13 14:08:51;;;;;;;;;;;14.60;99.90;;;;;;4847314;29;19927;-63
2023/03/13 14:11:26;;;;;;;;;;;14.50;99.90;;;;;;4879566;29;20171;-62
2023/03/13 14:14:08;;;;;;;;;;;14.60;99.90;;;;;;4860781;29;19931;-62
2023/03/13 14:16:35;;;;;;;;;;;14.50;99.90;;;;;;4877933;29;20003;-63
2023/03/13 14:19:01;;;;;;;;;;;14.50;99.90;;;;;;4860532;29;20398;-63
2023/03/13 14:21:27;;;;;;;;;;;14.50;99.90;;;;;;4879665;29;19928;-62
2023/03/13 14:23:53;;;;;;;;;;;14.50;99.90;;;;;;4863061;29;19975;-63
2023/03/13 14:26:18;;;;;;;;;;;14.40;99.90;;;;;;4879233;29;20160;-63
2023/03/13 14:28:46;;;;;;;;;;;14.40;99.90;;;;;;4863195;29;19928;-63